Terminal Aerodrome Forecast
Issued by NWS St Louis, MO

Home | Current Version | Previous Version | Graphics & Text | Print | Product List | Glossary On
Versions: 1 2 3 4 5 6 7 8 9 10 11 12 13 14 15 16 17 18 19 20 21 22 23 24 25 26 27 28 29
857
FTUS43 KLSX 160316 AAA
TAFSTL
TAF AMD
KSTL 160316Z 1603/1706 15006KT P6SM SCT060 BKN250
      TEMPO 1609/1612 5SM BR
     FM161200 13006KT 5SM BR VCSH BKN030
     FM161600 17008KT P6SM BKN040
     FM162100 18010KT P6SM VCTS SCT050CB BKN120
     FM170300 18010KT P6SM SCT060 BKN120=

USA.gov is the U.S. government's official web portal to all federal, state and local government web resources and services.